Time;durP1;ratioP1;P1;durP2;ratioP2;P2;SDS_P1;SDS_P2;PMS_P1;PMS_P2;Temp;Humidity;BMP_temperature;BMP_pressure;BME280_temperature;BME280_humidity;BME280_pressure;Samples;Min_cycle;Max_cycle;Signal;HPM_P1;HPM_P2
2022/06/08 00:00:01;;;;;;;29.47;23.30;;;16.10;99.90;;;;;;2607673;39;20835;-76
2022/06/08 00:02:32;;;;;;;36.20;26.80;;;16.10;99.90;;;;;;2604904;54;20568;-75
2022/06/08 00:04:59;;;;;;;45.03;31.50;;;16.00;99.90;;;;;;2607179;54;20417;-75
2022/06/08 00:07:25;;;;;;;52.67;34.90;;;16.00;99.90;;;;;;2605997;54;20431;-75
2022/06/08 00:09:51;;;;;;;49.93;33.67;;;16.00;99.90;;;;;;2605898;39;20849;-75
2022/06/08 00:12:17;;;;;;;47.83;32.83;;;16.00;99.90;;;;;;2604731;54;20439;-74
2022/06/08 00:14:45;;;;;;;41.70;31.20;;;16.00;99.90;;;;;;2605863;54;20415;-75
2022/06/08 00:17:11;;;;;;;46.77;31.20;;;16.00;99.90;;;;;;2605686;46;20588;-75
2022/06/08 00:19:37;;;;;;;44.57;30.73;;;15.90;99.90;;;;;;2604016;39;21218;-74
2022/06/08 00:22:03;;;;;;;38.30;28.50;;;16.00;99.90;;;;;;2604066;54;20516;-74
2022/06/08 00:24:29;;;;;;;39.33;28.70;;;15.90;99.90;;;;;;2605793;54;20446;-75
2022/06/08 00:26:55;;;;;;;35.43;28.60;;;15.90;99.90;;;;;;2604186;39;20912;-74
2022/06/08 00:29:21;;;;;;;35.97;26.07;;;15.90;99.90;;;;;;2605572;54;20419;-75
2022/06/08 00:31:50;;;;;;;35.10;25.73;;;15.90;99.90;;;;;;2605223;47;20475;-75
2022/06/08 00:34:15;;;;;;;34.20;24.90;;;15.90;99.90;;;;;;2605508;39;21184;-75
2022/06/08 00:36:41;;;;;;;29.83;24.30;;;15.90;99.90;;;;;;2604242;47;20488;-75
2022/06/08 00:39:07;;;;;;;32.70;23.80;;;16.00;99.90;;;;;;2604840;47;20274;-74
2022/06/08 00:41:46;;;;;;;39.53;27.30;;;15.90;99.90;;;;;;2605182;47;20769;-75
2022/06/08 00:44:27;;;;;;;38.77;27.77;;;15.90;99.90;;;;;;2603752;54;21010;-75
2022/06/08 00:46:54;;;;;;;42.13;27.30;;;16.00;99.90;;;;;;2605092;54;20428;-75
2022/06/08 00:49:39;;;;;;;35.73;27.37;;;15.90;99.90;;;;;;2606479;46;20578;-75
2022/06/08 00:52:06;;;;;;;32.40;24.67;;;15.90;99.90;;;;;;2606404;46;20470;-75
2022/06/08 00:54:37;;;;;;;33.03;26.17;;;15.90;99.90;;;;;;2606393;47;21358;-75
2022/06/08 00:57:25;;;;;;;30.23;23.70;;;15.90;99.90;;;;;;2606912;39;20658;-75
2022/06/08 00:59:56;;;;;;;31.77;25.50;;;15.80;99.90;;;;;;2606473;54;20596;-75
2022/06/08 01:02:22;;;;;;;36.97;25.17;;;15.80;99.90;;;;;;2607104;54;20453;-75
2022/06/08 01:04:50;;;;;;;30.10;23.37;;;15.70;99.90;;;;;;2605814;54;20431;-75
2022/06/08 01:07:20;;;;;;;30.47;23.37;;;15.70;99.90;;;;;;2604140;54;20420;-76
2022/06/08 01:09:48;;;;;;;27.90;22.53;;;15.70;99.90;;;;;;2606985;46;20507;-75
2022/06/08 01:12:20;;;;;;;28.57;23.83;;;15.70;99.90;;;;;;2605501;47;20529;-75
2022/06/08 01:14:51;;;;;;;30.20;23.67;;;15.60;99.90;;;;;;2605342;54;20461;-75
2022/06/08 01:17:20;;;;;;;28.10;21.60;;;15.50;99.90;;;;;;2609418;46;20428;-75
2022/06/08 01:19:50;;;;;;;32.50;24.70;;;15.50;99.90;;;;;;2611286;54;21266;-74
2022/06/08 01:22:20;;;;;;;34.87;25.83;;;15.40;99.90;;;;;;2610588;47;20526;-76
2022/06/08 01:24:53;;;;;;;35.23;25.67;;;15.40;99.90;;;;;;2611830;39;21076;-75
2022/06/08 01:27:40;;;;;;;34.03;25.37;;;15.20;99.90;;;;;;2610814;54;20434;-79
2022/06/08 01:30:10;;;;;;;35.87;24.60;;;15.20;99.90;;;;;;2612548;47;21306;-78
2022/06/08 01:32:56;;;;;;;32.77;23.57;;;15.20;99.90;;;;;;2610463;54;20462;-77
2022/06/08 01:35:47;;;;;;;32.97;24.93;;;15.20;99.90;;;;;;2607415;54;20424;-78
2022/06/08 01:38:19;;;;;;;32.37;24.83;;;15.20;99.90;;;;;;2608206;54;20441;-77
2022/06/08 01:41:14;;;;;;;34.77;25.77;;;15.20;99.90;;;;;;2607737;47;20424;-78
2022/06/08 01:44:15;;;;;;;37.60;27.30;;;15.20;99.90;;;;;;2607712;54;20581;-78
2022/06/08 01:47:08;;;;;;;32.53;24.57;;;15.20;99.90;;;;;;2607630;54;20998;-78
2022/06/08 01:49:47;;;;;;;36.67;26.60;;;15.40;99.90;;;;;;2606512;54;22703;-79
2022/06/08 01:52:48;;;;;;;42.13;26.37;;;15.30;99.90;;;;;;2608206;54;20422;-78
2022/06/08 01:55:25;;;;;;;39.70;26.40;;;15.20;99.90;;;;;;2605591;54;20426;-79
2022/06/08 01:57:58;;;;;;;40.77;26.37;;;15.10;99.90;;;;;;2608547;54;20530;-79
2022/06/08 02:00:31;;;;;;;35.37;25.23;;;15.20;99.90;;;;;;2606441;54;20986;-79
2022/06/08 02:03:24;;;;;;;36.10;25.40;;;15.10;99.90;;;;;;2608249;39;20857;-78
2022/06/08 02:06:07;;;;;;;33.43;25.30;;;15.10;99.90;;;;;;2608117;46;20462;-78
2022/06/08 02:08:43;;;;;;;41.57;27.27;;;15.00;99.90;;;;;;2607145;47;20431;-78
2022/06/08 02:11:31;;;;;;;39.60;25.40;;;15.00;99.90;;;;;;2609149;39;21030;-79
2022/06/08 02:14:19;;;;;;;35.10;25.80;;;15.10;99.90;;;;;;2606419;54;21919;-78
2022/06/08 02:16:53;;;;;;;31.80;26.03;;;15.00;99.90;;;;;;2607039;47;20432;-78
2022/06/08 02:19:26;;;;;;;36.57;26.70;;;15.00;99.90;;;;;;2606763;47;20420;-76
2022/06/08 02:21:58;;;;;;;34.30;25.23;;;15.00;99.90;;;;;;2605574;47;20436;-78
2022/06/08 02:24:41;;;;;;;30.37;24.40;;;15.00;99.90;;;;;;2606749;47;20538;-77
2022/06/08 02:27:14;;;;;;;34.30;25.47;;;14.90;99.90;;;;;;2605965;54;20439;-79
2022/06/08 02:29:57;;;;;;;35.10;25.27;;;15.00;99.90;;;;;;2607023;54;20975;-78
2022/06/08 02:35:27;;;;;;;30.87;24.00;;;15.00;99.90;;;;;;2607516;47;20424;-78
2022/06/08 02:37:57;;;;;;;28.50;23.80;;;14.90;99.90;;;;;;2608681;54;20983;-78
2022/06/08 02:40:30;;;;;;;36.27;26.47;;;14.90;99.90;;;;;;2608625;50;20440;-78
2022/06/08 02:43:15;;;;;;;43.10;25.87;;;14.80;99.90;;;;;;2608186;54;20547;-78
2022/06/08 02:45:44;;;;;;;32.13;25.40;;;14.70;99.90;;;;;;2611132;47;20438;-79
2022/06/08 02:48:14;;;;;;;34.87;24.30;;;14.80;99.90;;;;;;2609078;47;20423;-78
2022/06/08 02:50:52;;;;;;;34.53;24.20;;;14.80;99.90;;;;;;2608675;47;20428;-79
2022/06/08 02:53:20;;;;;;;33.17;24.23;;;14.80;99.90;;;;;;2607057;54;20435;-78
2022/06/08 02:56:05;;;;;;;33.53;23.57;;;14.70;99.90;;;;;;2606720;47;20627;-78
2022/06/08 02:58:42;;;;;;;29.53;24.07;;;14.80;99.90;;;;;;2606408;54;20423;-74
2022/06/08 03:01:19;;;;;;;31.53;21.97;;;14.70;99.90;;;;;;2607470;47;21018;-78
2022/06/08 03:03:52;;;;;;;33.07;24.50;;;14.70;99.90;;;;;;2606328;47;20466;-80
2022/06/08 03:06:26;;;;;;;32.87;23.70;;;14.70;99.90;;;;;;2606555;47;20452;-79
2022/06/08 03:08:59;;;;;;;33.60;23.33;;;14.60;99.90;;;;;;2606493;54;20431;-79
2022/06/08 03:11:32;;;;;;;30.97;24.03;;;14.60;99.90;;;;;;2606605;47;20479;-78
2022/06/08 03:14:17;;;;;;;30.27;25.00;;;14.60;99.90;;;;;;2606474;54;20567;-78
2022/06/08 03:16:56;;;;;;;32.80;24.10;;;14.60;99.90;;;;;;2607108;47;20423;-79
2022/06/08 03:19:23;;;;;;;32.70;24.17;;;14.50;99.90;;;;;;2607526;39;20989;-79
2022/06/08 03:21:53;;;;;;;34.33;24.07;;;14.40;99.90;;;;;;2606515;54;20419;-79
2022/06/08 03:24:19;;;;;;;37.83;25.67;;;14.50;99.90;;;;;;2609152;54;20460;-80
2022/06/08 03:26:52;;;;;;;35.03;24.00;;;14.50;99.90;;;;;;2609631;54;20403;-79
2022/06/08 03:29:18;;;;;;;32.77;22.67;;;14.50;99.90;;;;;;2609619;39;20572;-80
2022/06/08 03:31:46;;;;;;;31.20;20.90;;;14.50;99.90;;;;;;2608931;47;20443;-79
2022/06/08 03:34:13;;;;;;;31.43;21.47;;;14.50;99.90;;;;;;2608020;46;20459;-79
2022/06/08 03:36:40;;;;;;;46.73;24.60;;;14.50;99.90;;;;;;2609053;47;22208;-79
2022/06/08 03:39:07;;;;;;;32.97;21.30;;;14.50;99.90;;;;;;2608970;51;20469;-79
2022/06/08 03:41:34;;;;;;;35.40;23.13;;;14.50;99.90;;;;;;2609395;39;20863;-79
2022/06/08 03:44:01;;;;;;;36.53;23.00;;;14.50;99.90;;;;;;2609259;54;20435;-78
2022/06/08 03:46:28;;;;;;;32.57;20.30;;;14.50;99.90;;;;;;2609634;39;20920;-79
2022/06/08 03:48:58;;;;;;;32.47;21.50;;;14.60;99.90;;;;;;2610170;47;20443;-79
2022/06/08 03:51:24;;;;;;;35.13;22.57;;;14.60;99.90;;;;;;2608464;47;20430;-78
2022/06/08 03:53:57;;;;;;;32.53;19.33;;;14.60;99.90;;;;;;2607678;47;20447;-78
2022/06/08 03:56:27;;;;;;;27.53;21.70;;;14.70;99.90;;;;;;2608198;54;20479;-79
2022/06/08 03:58:54;;;;;;;32.00;20.43;;;14.70;99.90;;;;;;2608501;54;20431;-78
2022/06/08 04:01:23;;;;;;;30.20;20.63;;;14.80;99.90;;;;;;2608196;47;21661;-79
2022/06/08 04:03:53;;;;;;;28.10;19.03;;;14.80;99.90;;;;;;2610123;54;20423;-80
2022/06/08 04:06:20;;;;;;;26.10;20.30;;;14.80;99.90;;;;;;2607541;54;20427;-79
2022/06/08 04:08:47;;;;;;;31.07;19.90;;;14.90;99.90;;;;;;2606424;54;22201;-79
2022/06/08 04:11:14;;;;;;;26.13;18.77;;;14.90;99.90;;;;;;2607593;47;20432;-79
2022/06/08 04:13:42;;;;;;;20.80;17.03;;;15.00;99.90;;;;;;2607144;47;20438;-79
2022/06/08 04:16:15;;;;;;;26.87;18.50;;;15.10;99.90;;;;;;2606860;47;20459;-78
2022/06/08 04:18:43;;;;;;;24.40;19.57;;;15.10;99.90;;;;;;2607925;47;20462;-78
2022/06/08 04:21:13;;;;;;;27.27;17.80;;;15.20;99.90;;;;;;2607247;54;21797;-79
2022/06/08 04:23:46;;;;;;;25.83;17.33;;;15.10;99.90;;;;;;2607358;47;20436;-78
2022/06/08 04:26:15;;;;;;;23.13;17.20;;;15.10;99.90;;;;;;2608255;54;20542;-78
2022/06/08 04:28:42;;;;;;;20.10;15.90;;;15.20;99.90;;;;;;2607608;46;20442;-79
2022/06/08 04:31:15;;;;;;;22.13;15.70;;;15.20;99.90;;;;;;2606290;47;20454;-77
2022/06/08 04:33:45;;;;;;;17.90;14.60;;;15.20;99.90;;;;;;2606660;47;20538;-79
2022/06/08 04:36:14;;;;;;;16.50;14.43;;;15.30;99.90;;;;;;2605859;47;20439;-78
2022/06/08 04:38:41;;;;;;;17.00;13.63;;;15.30;99.90;;;;;;2604625;47;20440;-77
2022/06/08 04:41:08;;;;;;;16.37;13.60;;;15.50;99.90;;;;;;2604461;47;20447;-78
2022/06/08 04:43:36;;;;;;;17.93;13.33;;;15.50;99.90;;;;;;2604742;47;20432;-78
2022/06/08 04:46:02;;;;;;;16.60;13.00;;;15.60;99.90;;;;;;2605775;39;21079;-78
2022/06/08 04:48:31;;;;;;;14.83;13.03;;;15.60;99.90;;;;;;2605346;47;20482;-79
2022/06/08 04:50:57;;;;;;;16.40;13.87;;;15.60;99.90;;;;;;2604562;47;20446;-78
2022/06/08 04:53:23;;;;;;;14.80;11.37;;;15.60;99.90;;;;;;2605487;47;21122;-78
2022/06/08 04:55:50;;;;;;;13.33;11.00;;;15.80;99.90;;;;;;2604440;54;20462;-78
2022/06/08 04:58:17;;;;;;;12.80;11.40;;;15.80;99.90;;;;;;2606812;54;20438;-77
2022/06/08 05:00:43;;;;;;;12.53;10.97;;;15.80;99.90;;;;;;2605207;47;20436;-78
2022/06/08 05:03:11;;;;;;;15.97;10.93;;;15.80;99.90;;;;;;2605723;54;21216;-77
2022/06/08 05:05:40;;;;;;;16.43;12.03;;;15.80;99.90;;;;;;2605317;47;20428;-77
2022/06/08 05:08:15;;;;;;;12.60;10.07;;;16.00;99.90;;;;;;2607061;54;20427;-78
2022/06/08 05:10:47;;;;;;;12.80;9.77;;;16.20;99.90;;;;;;2607720;54;20537;-79
2022/06/08 05:13:17;;;;;;;8.43;7.67;;;16.40;99.90;;;;;;2605231;47;20542;-81
2022/06/08 05:15:49;;;;;;;9.80;8.30;;;16.50;99.90;;;;;;2611517;47;20495;-78
2022/06/08 05:18:20;;;;;;;8.27;6.80;;;16.70;99.90;;;;;;2610062;54;20468;-78
2022/06/08 05:20:47;;;;;;;6.50;5.90;;;16.90;99.90;;;;;;2606070;31;20925;-76
2022/06/08 05:23:24;;;;;;;6.20;5.43;;;17.00;99.90;;;;;;2605379;39;20879;-76
2022/06/08 05:25:53;;;;;;;6.13;5.53;;;17.10;99.90;;;;;;2605169;47;20427;-76
2022/06/08 05:28:20;;;;;;;6.33;5.63;;;17.00;99.90;;;;;;2601264;47;20413;-76
2022/06/08 05:30:53;;;;;;;6.20;5.60;;;17.00;99.90;;;;;;2605138;47;20435;-76
2022/06/08 05:33:20;;;;;;;7.37;5.70;;;17.10;99.90;;;;;;2604743;47;20456;-75
2022/06/08 05:35:47;;;;;;;5.00;4.60;;;17.40;99.90;;;;;;2600921;54;20513;-75
2022/06/08 05:38:15;;;;;;;5.87;4.17;;;17.50;99.90;;;;;;2604438;47;20452;-77
2022/06/08 05:40:41;;;;;;;4.43;4.07;;;17.50;99.90;;;;;;2604877;47;20443;-75
2022/06/08 05:43:12;;;;;;;6.77;4.80;;;17.40;99.90;;;;;;2604046;47;20442;-75
2022/06/08 05:45:43;;;;;;;9.10;4.47;;;17.40;99.90;;;;;;2604169;47;20430;-76
2022/06/08 05:48:09;;;;;;;5.80;4.37;;;17.70;99.90;;;;;;2605328;51;20436;-76
2022/06/08 05:50:39;;;;;;;4.30;3.57;;;17.70;99.90;;;;;;2604577;47;20429;-76
2022/06/08 05:53:09;;;;;;;4.80;4.00;;;17.90;99.90;;;;;;2605447;47;20425;-76
2022/06/08 05:55:35;;;;;;;4.03;3.40;;;18.10;99.90;;;;;;2605497;47;20432;-76
2022/06/08 05:58:01;;;;;;;4.23;3.93;;;18.30;99.90;;;;;;2603197;47;20444;-76
2022/06/08 06:00:32;;;;;;;4.33;3.50;;;18.40;99.90;;;;;;2605938;54;20521;-77
2022/06/08 06:02:58;;;;;;;3.73;3.40;;;18.60;99.90;;;;;;2607490;39;20701;-78
2022/06/08 06:05:29;;;;;;;4.30;3.90;;;18.70;99.90;;;;;;2605448;47;20439;-77
2022/06/08 06:07:57;;;;;;;3.50;2.80;;;19.00;99.90;;;;;;2604967;54;20465;-77
2022/06/08 06:10:34;;;;;;;4.47;3.30;;;19.10;99.90;;;;;;2605732;39;20650;-77
2022/06/08 06:13:00;;;;;;;4.47;3.10;;;19.00;99.90;;;;;;2604838;54;20526;-78
2022/06/08 06:15:40;;;;;;;4.70;3.03;;;18.90;99.90;;;;;;2604663;47;20420;-77
2022/06/08 06:18:07;;;;;;;4.20;3.33;;;18.80;99.90;;;;;;2605398;54;20437;-77
2022/06/08 06:20:34;;;;;;;4.10;3.10;;;18.80;99.90;;;;;;2605345;39;20756;-77
2022/06/08 06:23:25;;;;;;;3.83;3.53;;;18.80;99.90;;;;;;2605648;46;20412;-77
2022/06/08 06:25:56;;;;;;;4.93;2.90;;;18.70;99.90;;;;;;2605917;54;20509;-77
2022/06/08 06:28:48;;;;;;;3.70;3.40;;;18.80;99.90;;;;;;2604969;39;20514;-77
2022/06/08 06:31:19;;;;;;;3.53;3.00;;;18.90;99.90;;;;;;2605617;54;20429;-76
2022/06/08 06:34:05;;;;;;;2.77;2.57;;;18.90;99.90;;;;;;2603799;47;20454;-76
2022/06/08 06:36:32;;;;;;;4.37;3.27;;;18.80;99.90;;;;;;2604250;46;20475;-76
2022/06/08 06:39:01;;;;;;;3.97;3.30;;;18.90;99.90;;;;;;2604978;39;21023;-75
2022/06/08 06:41:29;;;;;;;2.77;2.57;;;18.90;99.90;;;;;;2604779;31;20959;-76
2022/06/08 06:43:55;;;;;;;6.67;2.90;;;18.80;99.90;;;;;;2604439;39;20999;-76
2022/06/08 06:46:29;;;;;;;2.90;2.60;;;18.90;99.90;;;;;;2604595;47;20493;-76
2022/06/08 06:49:18;;;;;;;2.93;2.73;;;19.00;99.90;;;;;;2603779;47;20568;-75
2022/06/08 06:51:46;;;;;;;2.63;2.37;;;19.30;99.90;;;;;;2603729;47;20492;-77
2022/06/08 06:54:12;;;;;;;3.30;2.47;;;19.40;99.90;;;;;;2604742;39;20957;-77
2022/06/08 06:56:40;;;;;;;3.60;2.40;;;19.50;99.90;;;;;;2604465;47;20456;-76
2022/06/08 06:59:10;;;;;;;5.33;2.20;;;19.80;99.90;;;;;;2605405;54;20412;-77
2022/06/08 07:01:35;;;;;;;3.33;2.60;;;19.90;99.90;;;;;;2605251;47;20432;-76
2022/06/08 07:04:01;;;;;;;3.27;1.90;;;19.90;99.90;;;;;;2604284;47;20432;-76
2022/06/08 07:06:29;;;;;;;2.60;2.40;;;20.10;99.90;;;;;;2604651;54;20428;-76
2022/06/08 07:08:59;;;;;;;2.77;2.40;;;20.00;99.90;;;;;;2604841;47;20428;-76
2022/06/08 07:11:37;;;;;;;3.33;1.90;;;20.30;99.90;;;;;;2604629;47;20434;-76
2022/06/08 07:14:24;;;;;;;2.00;1.90;;;20.70;99.90;;;;;;2605265;46;20442;-76
2022/06/08 07:16:57;;;;;;;3.73;2.57;;;20.90;99.90;;;;;;2605307;47;20441;-77
2022/06/08 07:19:28;;;;;;;6.90;2.40;;;20.90;99.90;;;;;;2605817;54;20894;-77
2022/06/08 07:21:54;;;;;;;2.77;2.03;;;21.10;99.90;;;;;;2605121;47;20441;-76
2022/06/08 07:24:30;;;;;;;2.67;2.10;;;21.40;99.90;;;;;;2605416;47;21264;-76
2022/06/08 07:26:56;;;;;;;12.03;3.10;;;21.10;99.90;;;;;;2605978;54;20427;-77
2022/06/08 07:29:22;;;;;;;2.60;1.80;;;21.10;99.90;;;;;;2605419;54;20438;-77
2022/06/08 07:32:12;;;;;;;4.00;2.13;;;21.30;99.90;;;;;;2605846;54;20470;-77
2022/06/08 07:34:38;;;;;;;2.40;2.10;;;21.40;99.90;;;;;;2605257;47;20466;-76
2022/06/08 07:37:06;;;;;;;2.70;1.80;;;21.00;99.90;;;;;;2604691;39;20676;-76
2022/06/08 07:39:32;;;;;;;2.23;1.43;;;21.10;99.90;;;;;;2605160;54;20165;-77
2022/06/08 07:41:58;;;;;;;1.57;1.47;;;21.50;99.90;;;;;;2609801;54;20463;-77
2022/06/08 07:44:24;;;;;;;1.70;1.53;;;21.80;99.90;;;;;;2608924;54;20415;-75
2022/06/08 07:46:50;;;;;;;1.63;1.53;;;21.80;99.90;;;;;;2609331;54;20662;-76
2022/06/08 07:49:39;;;;;;;1.60;1.50;;;21.90;99.90;;;;;;2603656;47;20454;-76
2022/06/08 07:52:17;;;;;;;2.73;1.53;;;21.90;99.90;;;;;;2602637;54;21419;-78
2022/06/08 07:54:44;;;;;;;1.80;1.57;;;21.80;99.90;;;;;;2603846;54;20464;-75
2022/06/08 07:57:23;;;;;;;1.57;1.47;;;22.10;97.90;;;;;;2600563;54;20439;-77
2022/06/08 07:59:50;;;;;;;2.07;1.87;;;22.20;94.80;;;;;;2602628;51;20955;-77
2022/06/08 08:02:16;;;;;;;2.50;1.73;;;22.00;96.70;;;;;;2603831;54;20422;-76
2022/06/08 08:04:44;;;;;;;1.70;1.60;;;21.80;96.70;;;;;;2603153;39;20923;-75
2022/06/08 08:07:12;;;;;;;1.90;1.67;;;21.70;95.60;;;;;;2604009;54;20445;-77
2022/06/08 08:09:38;;;;;;;1.57;1.47;;;21.80;92.40;;;;;;2604404;54;20428;-76
2022/06/08 08:12:06;;;;;;;1.53;1.43;;;21.90;90.70;;;;;;2604189;47;20531;-76
2022/06/08 08:14:33;;;;;;;1.97;1.80;;;21.90;90.00;;;;;;2605138;54;20466;-77
2022/06/08 08:17:03;;;;;;;1.93;1.83;;;21.80;74.70;;;;;;2605602;54;20431;-76
2022/06/08 08:19:29;;;;;;;1.60;1.50;;;21.70;77.40;;;;;;2604516;54;20419;-76
2022/06/08 08:21:56;;;;;;;2.70;1.67;;;21.80;73.60;;;;;;2603315;54;20430;-77
2022/06/08 08:24:22;;;;;;;7.47;3.20;;;21.90;76.50;;;;;;2604705;54;21371;-75
2022/06/08 08:26:49;;;;;;;1.97;1.87;;;22.00;70.50;;;;;;2604444;54;20438;-77
2022/06/08 08:29:15;;;;;;;3.13;1.87;;;22.00;71.20;;;;;;2604029;47;20499;-76
2022/06/08 08:31:41;;;;;;;1.93;1.60;;;22.40;71.40;;;;;;2605430;54;20429;-77
2022/06/08 08:34:08;;;;;;;2.80;2.10;;;22.70;56.80;;;;;;2603806;54;21325;-76
2022/06/08 08:36:35;;;;;;;1.70;1.37;;;22.60;55.90;;;;;;2605156;54;20178;-76
2022/06/08 08:39:02;;;;;;;3.80;1.70;;;22.60;54.60;;;;;;2606476;54;20466;-77
2022/06/08 08:45:03;;;;;;;2.43;1.80;;;22.60;51.20;;;;;;2607011;54;20457;-76
2022/06/08 08:47:35;;;;;;;2.00;1.90;;;22.60;49.50;;;;;;2603944;54;20557;-75
2022/06/08 08:50:09;;;;;;;3.80;1.97;;;22.60;51.10;;;;;;2602703;47;20431;-75
2022/06/08 08:52:45;;;;;;;3.53;1.63;;;22.60;49.20;;;;;;2602385;39;20843;-76
2022/06/08 08:56:03;;;;;;;1.70;1.60;;;22.60;52.60;;;;;;2602573;47;20427;-76
2022/06/08 08:58:38;;;;;;;3.47;2.23;;;23.20;51.40;;;;;;2603830;39;21407;-76
2022/06/08 09:01:16;;;;;;;2.20;2.00;;;23.60;45.20;;;;;;2603223;39;20829;-77
2022/06/08 09:03:49;;;;;;;2.63;2.43;;;23.70;41.00;;;;;;2602904;54;20430;-76
2022/06/08 09:06:41;;;;;;;2.83;2.30;;;23.90;38.20;;;;;;2603507;54;20551;-77
2022/06/08 09:09:16;;;;;;;3.13;1.90;;;24.30;36.90;;;;;;2603300;54;20407;-77
2022/06/08 09:11:44;;;;;;;3.37;1.90;;;24.30;30.60;;;;;;2604185;54;20398;-75
2022/06/08 09:14:16;;;;;;;2.00;1.73;;;24.50;27.40;;;;;;2604020;39;21090;-75
2022/06/08 09:16:48;;;;;;;2.20;2.00;;;24.70;24.00;;;;;;2605656;39;20445;-76
2022/06/08 09:19:24;;;;;;;2.43;1.80;;;24.80;22.70;;;;;;2605589;46;20461;-75
2022/06/08 09:22:24;;;;;;;3.87;2.37;;;25.40;20.50;;;;;;2606126;54;20408;-75
2022/06/08 09:25:03;;;;;;;2.23;2.00;;;25.60;18.10;;;;;;2605807;54;20546;-77
2022/06/08 09:27:47;;;;;;;2.13;2.03;;;25.20;20.10;;;;;;2611960;54;20779;-77
2022/06/08 09:30:21;;;;;;;2.60;2.40;;;25.50;18.70;;;;;;2606776;39;21210;-77
2022/06/08 09:32:54;;;;;;;3.77;2.60;;;25.00;17.80;;;;;;2605003;47;20609;-77
2022/06/08 09:35:37;;;;;;;5.43;2.50;;;25.20;21.30;;;;;;2604907;39;20924;-78
2022/06/08 09:38:23;;;;;;;3.00;2.20;;;25.90;16.70;;;;;;2603959;39;20861;-79
2022/06/08 09:41:13;;;;;;;2.60;2.40;;;25.90;15.40;;;;;;2604749;39;20925;-75
2022/06/08 09:43:57;;;;;;;3.53;2.77;;;25.90;16.00;;;;;;2604690;31;20826;-77
2022/06/08 09:52:43;;;;;;;3.20;3.00;;;26.30;8.80;;;;;;2606142;54;20450;-77
2022/06/08 09:55:53;;;;;;;4.50;2.47;;;25.90;10.00;;;;;;2607749;54;20420;-77
2022/06/08 09:58:52;;;;;;;3.03;2.83;;;26.30;9.00;;;;;;2604363;39;20873;-77
2022/06/08 10:01:23;;;;;;;2.73;2.53;;;25.10;10.60;;;;;;2604014;47;20444;-77
2022/06/08 10:04:20;;;;;;;3.20;2.63;;;24.50;12.50;;;;;;2604171;47;20590;-78
2022/06/08 10:07:12;;;;;;;3.70;3.40;;;24.80;10.50;;;;;;2604285;54;20427;-77
2022/06/08 10:10:12;;;;;;;4.63;3.03;;;25.40;7.10;;;;;;2602375;54;20450;-77
2022/06/08 10:12:57;;;;;;;3.80;3.50;;;25.60;7.10;;;;;;2600992;54;20419;-78
2022/06/08 10:15:26;;;;;;;5.90;3.00;;;25.30;6.20;;;;;;2601957;54;20480;-77
2022/06/08 10:18:21;;;;;;;3.03;2.80;;;25.00;6.90;;;;;;2602996;54;21199;-77
2022/06/08 10:21:13;;;;;;;3.63;2.90;;;25.10;6.90;;;;;;2602722;47;20423;-77
2022/06/08 10:23:51;;;;;;;2.87;2.67;;;25.10;9.80;;;;;;2604828;54;20436;-78
2022/06/08 10:26:29;;;;;;;3.17;2.97;;;25.70;3.30;;;;;;2604741;54;20427;-77
2022/06/08 10:29:10;;;;;;;2.40;2.20;;;25.10;4.10;;;;;;2604813;39;20927;-75
2022/06/08 10:31:54;;;;;;;3.50;2.97;;;25.00;7.60;;;;;;2604864;54;20427;-76
2022/06/08 10:34:21;;;;;;;3.40;2.70;;;25.70;6.90;;;;;;2605200;54;21839;-77
2022/06/08 10:36:52;;;;;;;2.83;2.50;;;25.50;4.70;;;;;;2605501;47;20923;-77
2022/06/08 10:39:18;;;;;;;3.10;2.90;;;25.60;4.30;;;;;;2605019;54;20507;-77
2022/06/08 10:45:03;;;;;;;5.53;3.40;;;26.50;4.10;;;;;;2606132;54;20410;-76
2022/06/08 10:47:34;;;;;;;3.40;3.10;;;26.70;2.10;;;;;;2606254;54;20404;-77
2022/06/08 10:49:59;;;;;;;4.07;3.47;;;26.30;2.70;;;;;;2607007;54;20416;-76
2022/06/08 10:52:38;;;;;;;4.07;3.03;;;25.60;4.50;;;;;;2605576;54;20427;-76
2022/06/08 10:55:17;;;;;;;3.40;3.10;;;25.70;5.50;;;;;;2605745;54;20745;-76
2022/06/08 10:57:52;;;;;;;3.20;2.90;;;25.70;6.30;;;;;;2606979;54;20437;-77
2022/06/08 11:00:24;;;;;;;3.43;2.90;;;25.50;4.80;;;;;;2606811;54;20426;-75
2022/06/08 11:02:59;;;;;;;11.23;4.83;;;25.60;7.20;;;;;;2605752;47;20430;-75
2022/06/08 11:05:31;;;;;;;4.80;3.60;;;25.40;6.70;;;;;;2604573;54;20567;-75
2022/06/08 11:08:04;;;;;;;3.10;2.80;;;25.40;6.70;;;;;;2605715;54;20430;-75
2022/06/08 11:10:44;;;;;;;5.10;3.63;;;25.70;6.00;;;;;;2605706;54;20424;-76
2022/06/08 11:13:24;;;;;;;4.60;2.50;;;25.40;6.30;;;;;;2605932;54;21618;-76
2022/06/08 11:15:58;;;;;;;4.43;3.03;;;25.10;7.30;;;;;;2605219;47;20570;-76
2022/06/08 11:18:56;;;;;;;5.40;3.37;;;24.80;8.60;;;;;;2605514;54;20416;-76
2022/06/08 11:21:41;;;;;;;3.83;3.53;;;24.80;6.80;;;;;;2605589;54;20423;-76
2022/06/08 11:24:38;;;;;;;2.73;2.53;;;24.90;7.80;;;;;;2604494;54;20428;-76
2022/06/08 11:27:29;;;;;;;3.10;2.90;;;24.30;10.00;;;;;;2603986;54;20447;-77
2022/06/08 11:30:21;;;;;;;7.73;2.90;;;23.90;13.10;;;;;;2605025;54;20438;-76
2022/06/08 11:32:50;;;;;;;5.40;3.13;;;22.50;18.80;;;;;;2606430;54;21008;-77
2022/06/08 11:35:35;;;;;;;9.43;4.00;;;20.90;66.20;;;;;;2605339;47;20454;-74
2022/06/08 11:38:47;;;;;;;5.13;2.63;;;19.30;99.90;;;;;;2602945;54;20410;-76
2022/06/08 11:41:30;;;;;;;4.43;3.30;;;16.50;99.90;;;;;;2601297;54;20442;-74
2022/06/08 11:44:00;;;;;;;4.43;3.03;;;16.90;99.90;;;;;;2603129;54;20531;-74
2022/06/08 11:46:43;;;;;;;8.30;3.07;;;16.70;99.90;;;;;;2605209;54;20400;-76
2022/06/08 11:49:32;;;;;;;10.73;3.10;;;16.40;99.90;;;;;;2608071;54;20407;-81
2022/06/08 11:52:15;;;;;;;4.13;3.07;;;16.30;99.90;;;;;;2608832;54;20531;-80
2022/06/08 11:54:41;;;;;;;4.20;3.30;;;16.20;99.90;;;;;;2606361;54;20428;-80
2022/06/08 11:57:25;;;;;;;8.57;3.57;;;16.30;99.90;;;;;;2606418;47;20966;-79
2022/06/08 11:59:54;;;;;;;11.37;4.77;;;16.40;99.90;;;;;;2606616;54;20261;-77
2022/06/08 12:02:26;;;;;;;6.50;3.80;;;16.40;99.90;;;;;;2606398;47;20423;-79
2022/06/08 12:04:56;;;;;;;8.80;4.40;;;16.60;99.90;;;;;;2607212;39;21316;-79
2022/06/08 12:07:47;;;;;;;6.40;3.80;;;16.60;99.90;;;;;;2607285;54;20527;-78
2022/06/08 12:10:19;;;;;;;10.93;4.30;;;16.60;99.90;;;;;;2607444;54;20412;-78
2022/06/08 12:12:46;;;;;;;10.20;4.20;;;16.60;99.90;;;;;;2606038;47;20471;-80
2022/06/08 12:15:46;;;;;;;9.43;4.80;;;16.70;99.90;;;;;;2607345;47;20427;-79
2022/06/08 12:18:20;;;;;;;12.17;5.27;;;16.70;99.90;;;;;;2608957;54;20487;-83
2022/06/08 12:20:47;;;;;;;11.10;5.00;;;16.70;99.90;;;;;;2610931;47;20435;-84
2022/06/08 12:23:34;;;;;;;12.37;6.07;;;16.50;99.90;;;;;;2614803;54;20400;-85
2022/06/08 12:26:35;;;;;;;9.77;5.53;;;16.40;99.90;;;;;;2617358;54;20434;-83
2022/06/08 12:29:17;;;;;;;12.70;5.60;;;16.60;99.90;;;;;;2614031;54;20441;-84
2022/06/08 12:31:44;;;;;;;6.10;4.97;;;16.60;99.90;;;;;;2614807;54;20507;-83
2022/06/08 12:34:40;;;;;;;7.83;5.10;;;16.80;99.90;;;;;;2616364;54;20463;-82
2022/06/08 12:37:47;;;;;;;11.77;5.30;;;16.90;99.90;;;;;;2617106;47;20458;-81
2022/06/08 12:40:16;;;;;;;10.80;5.20;;;17.00;99.90;;;;;;2614683;54;20407;-82
2022/06/08 12:42:59;;;;;;;8.93;5.57;;;17.20;99.90;;;;;;2607451;54;20414;-82
2022/06/08 12:46:04;;;;;;;22.10;16.93;;;17.30;99.90;;;;;;2603544;54;20449;-82
2022/06/08 12:48:44;;;;;;;10.87;6.30;;;17.50;99.90;;;;;;2606533;54;20434;-84
2022/06/08 12:51:38;;;;;;;5.70;5.00;;;17.50;99.90;;;;;;2606489;54;20430;-82
2022/06/08 12:54:15;;;;;;;6.97;4.37;;;17.50;99.90;;;;;;2607027;54;21446;-82
2022/06/08 12:56:45;;;;;;;6.33;4.63;;;17.50;99.90;;;;;;2607096;54;20415;-86
2022/06/08 12:59:13;;;;;;;6.43;4.37;;;17.40;99.90;;;;;;2607791;54;20417;-83
2022/06/08 13:01:44;;;;;;;12.23;4.60;;;17.40;99.90;;;;;;2606774;54;20416;-85
2022/06/08 13:04:13;;;;;;;5.67;5.17;;;17.40;99.90;;;;;;2608083;54;20422;-83
2022/06/08 13:06:39;;;;;;;4.90;4.20;;;17.40;99.90;;;;;;2606433;54;20449;-80
2022/06/08 13:09:09;;;;;;;5.77;4.20;;;17.30;99.90;;;;;;2606373;54;20661;-82
2022/06/08 13:11:35;;;;;;;6.67;4.93;;;17.20;99.90;;;;;;2605399;54;20428;-80
2022/06/08 13:14:01;;;;;;;9.83;4.77;;;17.20;99.90;;;;;;2606637;54;20418;-82
2022/06/08 13:16:30;;;;;;;7.03;4.67;;;17.20;99.90;;;;;;2608447;54;20481;-83
2022/06/08 13:18:58;;;;;;;6.73;4.20;;;17.40;99.90;;;;;;2609124;54;20416;-83
2022/06/08 13:21:26;;;;;;;9.60;3.87;;;17.40;99.90;;;;;;2610494;39;21182;-83
2022/06/08 13:23:52;;;;;;;7.73;4.10;;;17.40;99.90;;;;;;2608796;54;20518;-83
2022/06/08 13:26:27;;;;;;;9.00;5.37;;;17.40;99.90;;;;;;2609340;54;20420;-82
2022/06/08 13:28:56;;;;;;;8.30;3.93;;;17.50;99.90;;;;;;2608665;54;20419;-82
2022/06/08 13:31:23;;;;;;;8.77;4.20;;;17.50;99.90;;;;;;2608335;54;20472;-82